createdAt,value
2023-02-03T00:01:01.648Z,99613.69
2023-02-03T00:03:28.295Z,99617.72
2023-02-03T00:05:55.765Z,99623.00
2023-02-03T00:08:23.221Z,99617.72
2023-02-03T00:10:50.010Z,99617.44
2023-02-03T00:13:16.699Z,99612.78
2023-02-03T00:15:43.355Z,99615.19
2023-02-03T00:18:09.964Z,99610.78
2023-02-03T00:20:36.560Z,99608.88
2023-02-03T00:23:08.522Z,99605.75
2023-02-03T00:25:35.849Z,99612.59
2023-02-03T00:28:03.020Z,99601.84
2023-02-03T00:30:30.081Z,99591.16
2023-02-03T00:32:56.752Z,99591.00
2023-02-03T00:35:23.821Z,99589.50
2023-02-03T00:37:55.996Z,99596.63
2023-02-03T00:40:24.796Z,99591.53
2023-02-03T00:42:52.195Z,99583.41
2023-02-03T00:45:19.280Z,99580.63
2023-02-03T00:47:45.964Z,99581.06
2023-02-03T00:50:12.672Z,99579.06
2023-02-03T00:52:39.281Z,99576.19
2023-02-03T00:55:06.684Z,99575.34
2023-02-03T00:57:33.381Z,99559.38
2023-02-03T00:59:59.974Z,99562.72
2023-02-03T01:02:26.630Z,99525.13
2023-02-03T01:04:53.253Z,99511.13
2023-02-03T01:07:19.944Z,99521.41
2023-02-03T01:09:46.603Z,99537.69
2023-02-03T01:12:13.369Z,99533.28
2023-02-03T01:14:40.081Z,99545.22
2023-02-03T01:17:06.695Z,99554.81
2023-02-03T01:19:33.435Z,99549.16
2023-02-03T01:22:00.066Z,99550.84
2023-02-03T01:24:26.707Z,99548.91
2023-02-03T01:26:53.298Z,99552.31
2023-02-03T01:29:19.945Z,99545.19
2023-02-03T01:31:46.729Z,99536.53
2023-02-03T01:34:16.491Z,99537.19
2023-02-03T01:36:43.145Z,99539.94
2023-02-03T01:39:10.464Z,99537.19
2023-02-03T01:41:39.214Z,99539.59
2023-02-03T01:44:43.048Z,99531.69
2023-02-03T01:47:15.799Z,99528.88
2023-02-03T01:49:47.529Z,99535.84
2023-02-03T01:52:14.304Z,99540.59
2023-02-03T01:54:45.694Z,99530.22
2023-02-03T01:57:36.081Z,99517.34
2023-02-03T02:00:07.160Z,99518.94
2023-02-03T02:02:34.013Z,99536.28
2023-02-03T02:05:07.746Z,99538.13
2023-02-03T02:07:37.561Z,99531.94
2023-02-03T02:10:05.691Z,99518.00
2023-02-03T02:12:32.268Z,99528.72
2023-02-03T02:14:59.435Z,99521.50
2023-02-03T02:17:37.813Z,99526.81
2023-02-03T02:20:29.276Z,99537.28
2023-02-03T02:23:40.236Z,99519.72
2023-02-03T02:26:51.776Z,99523.25
2023-02-03T02:29:25.847Z,99504.63
2023-02-03T02:32:07.771Z,99512.41
2023-02-03T02:34:41.859Z,99521.22
2023-02-03T02:37:28.144Z,99518.50
2023-02-03T02:40:00.399Z,99515.13
2023-02-03T02:43:01.967Z,99528.53
2023-02-03T02:45:45.531Z,99531.00
2023-02-03T02:48:55.129Z,99517.94
2023-02-03T02:51:23.657Z,99513.50
2023-02-03T02:53:55.443Z,99500.44
2023-02-03T02:56:25.622Z,99499.94
2023-02-03T02:58:55.076Z,99496.38
2023-02-03T03:01:21.722Z,99483.22
2023-02-03T03:03:48.425Z,99471.75
2023-02-03T03:06:20.885Z,99485.91
2023-02-03T03:08:57.466Z,99486.78
2023-02-03T03:11:28.561Z,99481.50
2023-02-03T03:13:56.362Z,99491.03
2023-02-03T03:16:25.944Z,99503.16
2023-02-03T03:19:01.218Z,99504.97
2023-02-03T03:21:34.943Z,99505.78
2023-02-03T03:24:07.686Z,99493.22
2023-02-03T03:26:50.072Z,99477.44
2023-02-03T03:29:22.697Z,99461.53
2023-02-03T03:31:49.601Z,99445.00
2023-02-03T03:34:16.957Z,99451.47
2023-02-03T03:37:07.482Z,99462.00
2023-02-03T03:39:56.590Z,99464.78
2023-02-03T03:42:33.029Z,99459.53
2023-02-03T03:45:09.338Z,99459.53
2023-02-03T03:47:42.157Z,99455.31
2023-02-03T03:50:14.430Z,99437.72
2023-02-03T03:52:43.818Z,99444.69
2023-02-03T03:55:12.450Z,99448.22
2023-02-03T03:57:45.291Z,99476.25
2023-02-03T04:00:15.845Z,99468.28
2023-02-03T04:02:46.645Z,99475.59
2023-02-03T04:05:14.271Z,99471.75
2023-02-03T04:07:46.569Z,99493.94
2023-02-03T04:10:18.217Z,99491.19
2023-02-03T04:12:44.973Z,99496.44
2023-02-03T04:15:11.624Z,99502.56
2023-02-03T04:17:38.248Z,99491.28
2023-02-03T04:20:05.649Z,99483.28
2023-02-03T04:22:32.269Z,99478.47
2023-02-03T04:24:59.101Z,99482.03
2023-02-03T04:27:26.725Z,99478.22
2023-02-03T04:29:53.371Z,99465.72
2023-02-03T04:32:20.078Z,99459.88
2023-02-03T04:34:46.776Z,99425.69
2023-02-03T04:37:13.507Z,99428.50
2023-02-03T04:39:40.252Z,99413.44
2023-02-03T04:42:06.891Z,99407.19
2023-02-03T04:44:33.508Z,99405.13
2023-02-03T04:47:00.210Z,99397.16
2023-02-03T04:49:26.913Z,99399.78
2023-02-03T04:51:53.478Z,99387.38
2023-02-03T04:54:20.163Z,99393.59
2023-02-03T04:56:46.732Z,99389.19
2023-02-03T04:59:13.315Z,99398.66
2023-02-03T05:01:39.881Z,99377.44
2023-02-03T05:04:06.516Z,99371.97
2023-02-03T05:06:33.793Z,99359.75
2023-02-03T05:09:00.706Z,99358.19
2023-02-03T05:11:27.560Z,99352.06
2023-02-03T05:13:54.403Z,99349.44
2023-02-03T05:16:21.109Z,99358.06
2023-02-03T05:18:48.077Z,99349.16
2023-02-03T05:21:14.936Z,99351.78
2023-02-03T05:23:41.733Z,99359.50
2023-02-03T05:26:08.528Z,99358.47
2023-02-03T05:28:35.319Z,99347.94
2023-02-03T05:31:02.923Z,99352.28
2023-02-03T05:33:30.022Z,99360.09
2023-02-03T05:35:57.059Z,99350.28
2023-02-03T05:38:24.916Z,99358.88
2023-02-03T05:41:10.971Z,99350.19
2023-02-03T05:43:38.004Z,99361.59
2023-02-03T05:46:06.328Z,99364.13
2023-02-03T05:48:33.878Z,99374.81
2023-02-03T05:51:00.661Z,99368.47
2023-02-03T05:53:27.365Z,99364.97
2023-02-03T05:55:54.429Z,99355.47
2023-02-03T05:58:21.158Z,99354.63
2023-02-03T06:00:47.777Z,99350.19
2023-02-03T06:03:14.415Z,99330.19
2023-02-03T06:05:41.541Z,99330.75
2023-02-03T06:08:08.834Z,99328.22
2023-02-03T06:10:35.616Z,99320.59
2023-02-03T06:13:13.325Z,99318.53
2023-02-03T06:15:40.521Z,99323.63
2023-02-03T06:18:08.141Z,99342.50
2023-02-03T06:20:35.504Z,99335.94
2023-02-03T06:23:02.241Z,99348.84
2023-02-03T06:25:29.103Z,99336.72
2023-02-03T06:27:55.783Z,99327.59
2023-02-03T06:30:23.909Z,99309.06
2023-02-03T06:32:51.000Z,99322.31
2023-02-03T06:35:18.051Z,99327.41
2023-02-03T06:37:44.901Z,99333.53
2023-02-03T06:40:12.621Z,99341.44
2023-02-03T06:42:39.373Z,99338.59
2023-02-03T06:45:06.526Z,99355.72
2023-02-03T06:47:33.173Z,99348.75
2023-02-03T06:49:59.821Z,99347.63
2023-02-03T06:52:26.461Z,99347.91
2023-02-03T06:54:53.078Z,99353.28
2023-02-03T06:57:19.980Z,99364.19
2023-02-03T06:59:46.627Z,99349.34
2023-02-03T07:02:13.418Z,99360.59
2023-02-03T07:04:40.096Z,99351.03
2023-02-03T07:07:07.061Z,99357.16
2023-02-03T07:09:33.655Z,99344.34
2023-02-03T07:12:00.319Z,99346.81
2023-02-03T07:14:26.961Z,99350.66
2023-02-03T07:16:54.475Z,99346.25
2023-02-03T07:19:21.173Z,99357.59
2023-02-03T07:21:47.857Z,99370.03
2023-02-03T07:24:14.959Z,99371.72
2023-02-03T07:26:41.644Z,99364.38
2023-02-03T07:29:08.484Z,99355.72
2023-02-03T07:31:35.977Z,99360.13
2023-02-03T07:34:02.782Z,99350.47
2023-02-03T07:36:29.460Z,99358.06
2023-02-03T07:38:56.542Z,99364.19
2023-02-03T07:41:23.197Z,99357.06
2023-02-03T07:43:50.153Z,99355.56
2023-02-03T07:46:17.052Z,99361.56
2023-02-03T07:48:43.933Z,99353.47
2023-02-03T07:51:10.575Z,99351.78
2023-02-03T07:53:37.333Z,99348.38
2023-02-03T07:56:05.311Z,99352.72
2023-02-03T07:58:32.667Z,99357.06
2023-02-03T08:00:59.499Z,99350.94
2023-02-03T08:03:26.365Z,99335.13
2023-02-03T08:05:53.557Z,99342.09
2023-02-03T08:08:20.245Z,99333.06
2023-02-03T08:10:46.887Z,99342.09
2023-02-03T08:13:13.816Z,99324.59
2023-02-03T08:15:40.442Z,99337.75
2023-02-03T08:18:08.870Z,99337.31
2023-02-03T08:20:35.924Z,99323.56
2023-02-03T08:23:02.511Z,99316.69
2023-02-03T08:25:29.114Z,99309.66
2023-02-03T08:27:55.912Z,99309.66
2023-02-03T08:30:23.778Z,99306.94
2023-02-03T08:32:50.815Z,99306.16
2023-02-03T08:35:17.980Z,99311.50
2023-02-03T08:37:44.689Z,99318.41
2023-02-03T08:40:12.739Z,99311.50
2023-02-03T08:42:39.391Z,99311.50
2023-02-03T08:45:06.620Z,99324.81
2023-02-03T08:47:33.380Z,99311.72
2023-02-03T08:50:00.019Z,99303.63
2023-02-03T08:52:26.653Z,99304.59
2023-02-03T08:54:53.210Z,99309.00
2023-02-03T08:57:20.749Z,99307.09
2023-02-03T08:59:47.360Z,99315.13
2023-02-03T09:02:17.141Z,99306.25
2023-02-03T09:04:45.049Z,99321.13
2023-02-03T09:07:11.841Z,99318.47
2023-02-03T09:09:38.501Z,99317.53
2023-02-03T09:12:08.645Z,99314.91
2023-02-03T09:14:35.576Z,99314.91
2023-02-03T09:17:03.898Z,99311.34
2023-02-03T09:19:31.160Z,99311.81
2023-02-03T09:21:57.963Z,99309.09
2023-02-03T09:24:25.019Z,99307.41
2023-02-03T09:26:51.824Z,99288.97
2023-02-03T09:29:18.654Z,99292.22
2023-02-03T09:31:47.120Z,99269.19
2023-02-03T09:34:13.913Z,99269.38
2023-02-03T09:36:41.975Z,99267.41
2023-02-03T09:39:09.648Z,99264.66
2023-02-03T09:41:58.446Z,99259.41
2023-02-03T09:44:35.890Z,99257.53
2023-02-03T09:47:10.183Z,99250.56
2023-02-03T09:49:42.692Z,99253.09
2023-02-03T09:52:20.767Z,99254.66
2023-02-03T09:54:53.235Z,99257.31
2023-02-03T09:57:26.224Z,99259.00
2023-02-03T09:59:56.426Z,99259.22
2023-02-03T10:02:48.850Z,99248.97
2023-02-03T10:05:30.622Z,99262.16
2023-02-03T10:08:22.946Z,99263.94
2023-02-03T10:11:26.537Z,99261.31
2023-02-03T10:14:11.737Z,99272.56
2023-02-03T10:16:57.157Z,99257.53
2023-02-03T10:19:36.332Z,99252.03
2023-02-03T10:22:05.819Z,99248.47
2023-02-03T10:24:41.111Z,99245.09
2023-02-03T10:27:22.768Z,99259.84
2023-02-03T10:29:57.805Z,99268.81
2023-02-03T10:32:26.385Z,99255.66
2023-02-03T10:34:53.446Z,99256.56
2023-02-03T10:37:27.067Z,99269.84
2023-02-03T10:39:55.720Z,99266.34
2023-02-03T10:42:23.418Z,99280.28
2023-02-03T10:44:57.489Z,99266.34
2023-02-03T10:47:34.902Z,99252.44
2023-02-03T10:50:13.696Z,99250.75
2023-02-03T10:52:40.370Z,99240.22
2023-02-03T10:55:30.153Z,99246.22
2023-02-03T10:57:58.027Z,99221.28
2023-02-03T11:00:30.572Z,99206.31
2023-02-03T11:03:06.077Z,99198.97
2023-02-03T11:05:33.654Z,99217.22
2023-02-03T11:08:00.704Z,99202.25
2023-02-03T11:10:27.662Z,99199.53
2023-02-03T11:13:19.526Z,99196.91
2023-02-03T11:15:57.109Z,99195.66
2023-02-03T11:18:32.185Z,99201.94
2023-02-03T11:20:59.754Z,99203.66
2023-02-03T11:23:26.513Z,99204.50
2023-02-03T11:25:53.245Z,99192.16
2023-02-03T11:28:21.376Z,99210.59
2023-02-03T11:30:56.830Z,99217.66
2023-02-03T11:33:27.860Z,99216.06
2023-02-03T11:35:59.709Z,99206.50
2023-02-03T11:38:38.718Z,99198.59
2023-02-03T11:41:05.459Z,99201.09
2023-02-03T11:43:32.135Z,99190.47
2023-02-03T11:46:05.201Z,99179.53
2023-02-03T11:48:46.014Z,99179.44
2023-02-03T11:51:45.008Z,99167.72
2023-02-03T11:54:42.915Z,99162.16
2023-02-03T11:57:31.945Z,99158.56
2023-02-03T12:00:27.465Z,99151.19
2023-02-03T12:03:03.347Z,99157.44
2023-02-03T12:05:39.076Z,99159.03
2023-02-03T12:08:08.531Z,99163.03
2023-02-03T12:10:42.189Z,99181.41
2023-02-03T12:13:30.500Z,99194.06
2023-02-03T12:16:34.372Z,99208.72
2023-02-03T12:19:19.435Z,99211.19
2023-02-03T12:22:06.231Z,99210.25
2023-02-03T12:24:47.741Z,99210.78
2023-02-03T12:27:54.700Z,99207.19
2023-02-03T12:30:42.888Z,99209.94
2023-02-03T12:33:25.093Z,99209.59
2023-02-03T12:35:57.656Z,99205.28
2023-02-03T12:38:45.827Z,99193.16
2023-02-03T12:41:36.879Z,99195.03
2023-02-03T12:44:19.671Z,99196.00
2023-02-03T12:47:04.944Z,99201.34
2023-02-03T12:49:51.688Z,99205.78
2023-02-03T12:52:18.491Z,99191.03
2023-02-03T12:54:57.339Z,99215.69
2023-02-03T12:57:55.099Z,99221.91
2023-02-03T13:00:35.200Z,99216.75
2023-02-03T13:03:17.573Z,99228.03
2023-02-03T13:05:51.796Z,99248.28
2023-02-03T13:08:44.094Z,99235.09
2023-02-03T13:11:16.779Z,99236.25
2023-02-03T13:13:50.310Z,99230.25
2023-02-03T13:16:21.311Z,99224.78
2023-02-03T13:18:54.371Z,99240.69
2023-02-03T13:21:21.056Z,99247.66
2023-02-03T13:23:48.447Z,99260.75
2023-02-03T13:26:25.366Z,99244.16
2023-02-03T13:29:22.595Z,99239.00
2023-02-03T13:31:52.157Z,99248.50
2023-02-03T13:34:28.040Z,99245.22
2023-02-03T13:37:25.609Z,99233.09
2023-02-03T13:40:18.020Z,99226.75
2023-02-03T13:42:52.098Z,99219.78
2023-02-03T13:45:21.705Z,99218.56
2023-02-03T13:47:52.431Z,99224.88
2023-02-03T13:50:31.580Z,99218.75
2023-02-03T13:53:03.430Z,99224.56
2023-02-03T13:55:33.504Z,99228.88
2023-02-03T13:58:00.659Z,99241.31
2023-02-03T14:00:45.556Z,99246.50
2023-02-03T14:03:19.945Z,99246.19
2023-02-03T14:05:52.362Z,99245.16
2023-02-03T14:08:27.731Z,99255.66
2023-02-03T14:11:31.844Z,99250.38
2023-02-03T14:14:07.504Z,99256.91
2023-02-03T14:16:44.793Z,99250.25
2023-02-03T14:19:32.888Z,99262.59
2023-02-03T14:22:05.434Z,99245.06
2023-02-03T14:24:34.823Z,99267.16
2023-02-03T14:27:03.962Z,99259.25
2023-02-03T14:29:34.871Z,99248.91
2023-02-03T14:32:05.788Z,99234.38
2023-02-03T14:34:44.298Z,99261.69
2023-02-03T14:37:11.007Z,99269.28
2023-02-03T14:39:56.049Z,99274.03
2023-02-03T14:42:34.637Z,99264.31
2023-02-03T14:45:10.309Z,99258.50
2023-02-03T14:47:49.006Z,99282.44
2023-02-03T14:50:57.737Z,99256.25
2023-02-03T14:53:52.649Z,99254.97
2023-02-03T14:56:59.302Z,99251.78
2023-02-03T14:59:39.651Z,99253.28
2023-02-03T15:02:06.583Z,99258.94
2023-02-03T15:04:33.616Z,99275.16
2023-02-03T15:07:00.314Z,99259.13
2023-02-03T15:09:43.140Z,99254.34
2023-02-03T15:12:23.256Z,99270.06
2023-02-03T15:14:50.439Z,99282.53
2023-02-03T15:17:24.593Z,99269.34
2023-02-03T15:19:51.974Z,99276.41
2023-02-03T15:22:22.457Z,99293.06
2023-02-03T15:24:52.562Z,99298.50
2023-02-03T15:27:24.082Z,99293.16
2023-02-03T15:29:50.713Z,99306.31
2023-02-03T15:32:25.364Z,99300.38
2023-02-03T15:34:53.673Z,99304.16
2023-02-03T15:37:20.268Z,99299.66
2023-02-03T15:40:00.373Z,99307.06
2023-02-03T15:42:31.216Z,99306.22
2023-02-03T15:45:02.084Z,99303.13
2023-02-03T15:47:34.458Z,99303.78
2023-02-03T15:50:28.749Z,99319.03
2023-02-03T15:52:59.252Z,99319.03
2023-02-03T15:55:31.826Z,99315.56
2023-02-03T15:57:59.344Z,99313.69
2023-02-03T16:00:30.591Z,99311.53
2023-02-03T16:02:59.979Z,99312.00
2023-02-03T16:05:28.361Z,99307.47
2023-02-03T16:07:55.510Z,99318.28
2023-02-03T16:10:32.077Z,99319.25
2023-02-03T16:13:35.855Z,99311.69
2023-02-03T16:16:16.102Z,99328.81
2023-02-03T16:18:52.063Z,99325.41
2023-02-03T16:21:28.322Z,99328.19
2023-02-03T16:23:55.012Z,99321.84
2023-02-03T16:26:25.575Z,99329.88
2023-02-03T16:29:34.591Z,99323.94
2023-02-03T16:32:19.921Z,99329.28
2023-02-03T16:35:05.411Z,99335.06
2023-02-03T16:38:03.177Z,99341.16
2023-02-03T16:40:48.290Z,99353.09
2023-02-03T16:43:35.332Z,99347.47
2023-02-03T16:46:21.169Z,99378.69
2023-02-03T16:49:06.283Z,99367.41
2023-02-03T16:51:42.632Z,99367.59
2023-02-03T16:54:14.667Z,99373.59
2023-02-03T16:56:41.403Z,99374.44
2023-02-03T16:59:08.100Z,99380.88
2023-02-03T17:01:35.751Z,99401.47
2023-02-03T17:04:02.902Z,99411.06
2023-02-03T17:06:29.922Z,99400.31
2023-02-03T17:08:58.901Z,99401.84
2023-02-03T17:11:31.990Z,99398.66
2023-02-03T17:13:58.843Z,99402.38
2023-02-03T17:16:27.396Z,99406.81
2023-02-03T17:18:54.501Z,99408.78
2023-02-03T17:21:26.631Z,99417.22
2023-02-03T17:23:53.425Z,99424.09
2023-02-03T17:26:20.391Z,99424.38
2023-02-03T17:28:47.263Z,99426.91
2023-02-03T17:31:17.411Z,99432.28
2023-02-03T17:33:44.844Z,99432.78
2023-02-03T17:36:15.016Z,99429.38
2023-02-03T17:55:15.275Z,99445.97
2023-02-03T17:57:41.849Z,99436.28
2023-02-03T18:00:15.904Z,99452.19
2023-02-03T18:02:43.318Z,99442.84
2023-02-03T18:05:10.431Z,99447.34
2023-02-03T18:07:37.062Z,99451.59
2023-02-03T18:10:04.598Z,99469.94
2023-02-03T18:12:31.221Z,99469.88
2023-02-03T18:14:57.969Z,99482.19
2023-02-03T18:17:24.657Z,99469.25
2023-02-03T18:19:55.833Z,99486.75
2023-02-03T18:22:22.802Z,99482.84
2023-02-03T18:24:52.698Z,99473.91
2023-02-03T18:27:19.714Z,99484.22
2023-02-03T18:29:48.161Z,99492.53
2023-02-03T18:32:16.147Z,99497.22
2023-02-03T18:34:42.936Z,99500.31
2023-02-03T18:37:09.701Z,99508.50
2023-02-03T18:39:36.481Z,99497.22
2023-02-03T18:42:03.812Z,99504.25
2023-02-03T18:44:31.714Z,99504.16
2023-02-03T18:47:06.804Z,99505.19
2023-02-03T18:49:35.900Z,99515.72
2023-02-03T18:52:03.381Z,99528.03
2023-02-03T18:54:30.185Z,99517.16
2023-02-03T18:56:59.100Z,99525.97
2023-02-03T18:59:26.250Z,99522.41
2023-02-03T19:01:53.173Z,99527.75
2023-02-03T19:04:20.426Z,99531.25
2023-02-03T19:06:47.753Z,99529.19
2023-02-03T19:09:17.094Z,99541.84
2023-02-03T19:11:44.118Z,99527.69
2023-02-03T19:14:13.634Z,99544.31
2023-02-03T19:16:40.584Z,99555.88
2023-02-03T19:19:07.189Z,99573.34
2023-02-03T19:21:33.881Z,99576.84
2023-02-03T19:24:00.703Z,99564.53
2023-02-03T19:26:28.025Z,99567.16
2023-02-03T19:28:55.890Z,99569.72
2023-02-03T19:31:23.029Z,99568.09
2023-02-03T19:33:49.934Z,99573.34
2023-02-03T19:36:16.694Z,99597.06
2023-02-03T19:38:43.413Z,99594.41
2023-02-03T19:41:11.829Z,99593.31
2023-02-03T19:43:40.084Z,99595.94
2023-02-03T19:46:07.581Z,99597.97
2023-02-03T19:48:34.350Z,99583.22
2023-02-03T19:51:01.130Z,99585.16
2023-02-03T19:53:28.012Z,99595.94
2023-02-03T19:55:54.736Z,99616.22
2023-02-03T19:58:21.534Z,99618.94
2023-02-03T20:00:48.116Z,99627.59
2023-02-03T20:03:14.853Z,99628.53
2023-02-03T20:05:41.444Z,99642.47
2023-02-03T20:08:12.870Z,99656.72
2023-02-03T20:10:40.392Z,99654.69
2023-02-03T20:13:07.096Z,99659.88
2023-02-03T20:15:33.693Z,99662.50
2023-02-03T20:18:00.311Z,99661.41
2023-02-03T20:20:26.943Z,99665.97
2023-02-03T20:22:53.616Z,99675.50
2023-02-03T20:25:21.020Z,99679.13
2023-02-03T20:27:48.964Z,99687.19
2023-02-03T20:30:15.857Z,99683.72
2023-02-03T20:32:43.121Z,99689.16
2023-02-03T20:35:11.748Z,99703.25
2023-02-03T20:37:38.456Z,99701.53
2023-02-03T20:40:18.421Z,99696.03
2023-02-03T20:42:45.452Z,99716.47
2023-02-03T20:45:21.001Z,99725.28
2023-02-03T20:47:48.246Z,99728.84
2023-02-03T20:50:21.684Z,99721.13
2023-02-03T20:52:51.543Z,99730.03
2023-02-03T20:55:21.512Z,99730.72
2023-02-03T20:57:50.860Z,99750.06
2023-02-03T21:00:20.620Z,99747.44
2023-02-03T21:03:06.475Z,99758.97
2023-02-03T21:05:37.456Z,99760.69
2023-02-03T21:08:14.143Z,99752.94
2023-02-03T21:10:41.586Z,99764.47
2023-02-03T21:13:17.303Z,99772.44
2023-02-03T21:15:43.932Z,99777.03
2023-02-03T21:18:31.604Z,99777.16
2023-02-03T21:20:59.230Z,99796.66
2023-02-03T21:23:42.414Z,99787.00
2023-02-03T21:26:38.380Z,99796.81
2023-02-03T21:29:05.131Z,99806.34
2023-02-03T21:31:34.690Z,99822.34
2023-02-03T21:34:03.938Z,99821.41
2023-02-03T21:36:35.025Z,99821.50
2023-02-03T21:39:02.131Z,99825.28
2023-02-03T21:41:33.836Z,99830.56
2023-02-03T21:44:01.367Z,99818.31
2023-02-03T21:46:31.989Z,99802.56
2023-02-03T21:49:03.857Z,99821.94
2023-02-03T21:51:35.100Z,99815.84
2023-02-03T21:54:05.916Z,99827.44
2023-02-03T21:56:40.488Z,99826.59
2023-02-03T21:59:26.455Z,99830.44
2023-02-03T22:01:54.066Z,99819.69
2023-02-03T22:04:21.003Z,99831.16
2023-02-03T22:06:50.049Z,99833.78
2023-02-03T22:09:19.576Z,99827.75
2023-02-03T22:11:46.462Z,99825.06
2023-02-03T22:14:14.366Z,99830.69
2023-02-03T22:16:41.086Z,99829.75
2023-02-03T22:19:17.736Z,99837.84
2023-02-03T22:21:45.046Z,99836.16
2023-02-03T22:24:11.669Z,99835.44
2023-02-03T22:26:38.424Z,99823.50
2023-02-03T22:29:05.691Z,99828.00
2023-02-03T22:31:32.746Z,99824.66
2023-02-03T22:33:59.511Z,99828.22
2023-02-03T22:36:26.297Z,99838.72
2023-02-03T22:38:53.043Z,99848.38
2023-02-03T22:41:21.002Z,99846.59
2023-02-03T22:43:47.978Z,99846.84
2023-02-03T22:46:14.762Z,99851.25
2023-02-03T22:48:41.634Z,99847.91
2023-02-03T22:51:08.731Z,99854.09
2023-02-03T22:53:35.759Z,99859.47
2023-02-03T22:56:02.590Z,99858.44
2023-02-03T22:58:29.526Z,99865.47
2023-02-03T23:00:56.147Z,99872.41
2023-02-03T23:03:22.914Z,99880.22
2023-02-03T23:05:49.615Z,99874.94
2023-02-03T23:08:16.396Z,99887.19
2023-02-03T23:10:43.042Z,99883.63
2023-02-03T23:13:09.741Z,99878.53
2023-02-03T23:15:36.398Z,99876.81
2023-02-03T23:18:03.130Z,99879.50
2023-02-03T23:20:30.147Z,99882.94
2023-02-03T23:22:57.053Z,99881.06
2023-02-03T23:25:23.770Z,99883.78
2023-02-03T23:27:50.465Z,99883.78
2023-02-03T23:30:17.253Z,99878.66
2023-02-03T23:32:43.839Z,99879.63
2023-02-03T23:35:29.397Z,99892.59
2023-02-03T23:37:56.100Z,99895.97
2023-02-03T23:40:22.863Z,99899.56
2023-02-03T23:42:49.939Z,99898.47
2023-02-03T23:45:16.761Z,99907.50
2023-02-03T23:47:44.821Z,99895.84
2023-02-03T23:50:14.214Z,99892.31
2023-02-03T23:52:40.810Z,99909.22
2023-02-03T23:55:11.130Z,99911.97
2023-02-03T23:57:38.007Z,99920.69
